createdAt,value
2023-04-20T00:00:30.441Z,1010.78
2023-04-20T00:01:30.513Z,1010.68
2023-04-20T00:02:30.556Z,1010.84
2023-04-20T00:03:30.688Z,1010.77
2023-04-20T00:04:30.425Z,1010.76
2023-04-20T00:05:30.503Z,1010.59
2023-04-20T00:06:30.382Z,1010.76
2023-04-20T00:07:30.425Z,1010.74
2023-04-20T00:08:30.357Z,1010.64
2023-04-20T00:09:30.353Z,1010.61
2023-04-20T00:10:30.349Z,1010.64
2023-04-20T00:11:30.347Z,1010.58
2023-04-20T00:12:30.330Z,1010.64
2023-04-20T00:13:30.388Z,1010.63
2023-04-20T00:14:30.306Z,1010.47
2023-04-20T00:15:30.325Z,1010.55
2023-04-20T00:16:30.348Z,1010.54
2023-04-20T00:17:30.350Z,1010.56
2023-04-20T00:18:30.261Z,1010.46
2023-04-20T00:19:30.258Z,1010.50
2023-04-20T00:20:30.267Z,1010.46
2023-04-20T00:21:30.229Z,1010.38
2023-04-20T00:22:30.280Z,1010.47
2023-04-20T00:23:30.214Z,1010.39
2023-04-20T00:24:30.195Z,1010.39
2023-04-20T00:25:30.200Z,1010.41
2023-04-20T00:26:30.175Z,1010.39
2023-04-20T00:27:30.247Z,1010.36
2023-04-20T00:28:30.141Z,1010.35
2023-04-20T00:29:30.148Z,1010.33
2023-04-20T00:30:30.156Z,1010.35
2023-04-20T00:31:30.171Z,1010.31
2023-04-20T00:32:30.209Z,1010.25
2023-04-20T00:33:30.102Z,1010.21
2023-04-20T00:34:30.096Z,1010.18
2023-04-20T00:35:30.088Z,1010.20
2023-04-20T00:36:30.150Z,1010.21
2023-04-20T00:37:30.129Z,1010.08
2023-04-20T00:38:30.041Z,1010.07
2023-04-20T00:39:30.061Z,1010.11
2023-04-20T00:40:30.017Z,1010.11
2023-04-20T00:41:30.050Z,1010.07
2023-04-20T00:42:30.073Z,1010.06
2023-04-20T00:43:30.008Z,1009.97
2023-04-20T00:44:29.969Z,1009.98
2023-04-20T00:45:30.016Z,1009.99
2023-04-20T00:46:29.982Z,1009.99
2023-04-20T00:47:30.044Z,1010.01
2023-04-20T00:48:29.947Z,1009.93
2023-04-20T00:49:29.937Z,1010.06
2023-04-20T00:50:29.928Z,1009.98
2023-04-20T00:51:29.902Z,1009.97
2023-04-20T00:52:29.973Z,1009.94
2023-04-20T00:53:29.878Z,1009.91
2023-04-20T00:54:29.889Z,1009.91
2023-04-20T00:55:29.869Z,1009.88
2023-04-20T00:56:29.860Z,1009.84
2023-04-20T00:57:29.847Z,1009.89
2023-04-20T00:58:29.991Z,1010.00
2023-04-20T00:59:29.817Z,1010.03
2023-04-20T01:00:29.811Z,1010.00
2023-04-20T01:01:29.824Z,1009.97
2023-04-20T01:02:29.970Z,1009.91
2023-04-20T01:03:30.075Z,1009.97
2023-04-20T01:04:29.900Z,1009.89
2023-04-20T01:05:29.801Z,1009.87
2023-04-20T01:06:29.755Z,1009.73
2023-04-20T01:07:29.745Z,1009.94
2023-04-20T01:08:29.795Z,1009.84
2023-04-20T01:09:29.724Z,1009.81
2023-04-20T01:10:29.711Z,1009.82
2023-04-20T01:11:29.684Z,1009.92
2023-04-20T01:12:29.693Z,1009.94
2023-04-20T01:13:29.806Z,1009.80
2023-04-20T01:14:29.690Z,1009.89
2023-04-20T01:15:29.688Z,1009.99
2023-04-20T01:16:29.787Z,1010.00
2023-04-20T01:17:29.679Z,1009.81
2023-04-20T01:18:29.686Z,1009.94
2023-04-20T01:19:29.628Z,1009.94
2023-04-20T01:20:29.601Z,1009.96
2023-04-20T01:21:29.605Z,1009.88
2023-04-20T01:22:29.586Z,1009.84
2023-04-20T01:23:29.628Z,1009.82
2023-04-20T01:24:29.577Z,1009.82
2023-04-20T01:25:29.613Z,1009.80
2023-04-20T01:26:29.546Z,1009.93
2023-04-20T01:27:29.540Z,1009.76
2023-04-20T01:28:29.511Z,1009.79
2023-04-20T01:29:29.524Z,1009.78
2023-04-20T01:30:29.612Z,1009.72
2023-04-20T01:31:29.556Z,1009.71
2023-04-20T01:32:29.494Z,1009.74
2023-04-20T01:33:29.487Z,1009.79
2023-04-20T01:34:29.497Z,1009.73
2023-04-20T01:35:29.517Z,1009.75
2023-04-20T01:36:29.445Z,1009.71
2023-04-20T01:37:29.455Z,1009.76
2023-04-20T01:38:29.422Z,1009.74
2023-04-20T01:39:29.442Z,1009.74
2023-04-20T01:40:29.504Z,1009.74
2023-04-20T01:41:29.384Z,1009.78
2023-04-20T01:42:29.458Z,1009.69
2023-04-20T01:43:29.361Z,1009.67
2023-04-20T01:44:29.353Z,1009.65
2023-04-20T01:45:29.348Z,1009.61
2023-04-20T01:46:29.493Z,1009.69
2023-04-20T01:47:29.382Z,1009.58
2023-04-20T01:48:29.352Z,1009.56
2023-04-20T01:49:29.328Z,1009.55
2023-04-20T01:50:29.300Z,1009.60
2023-04-20T01:51:29.367Z,1009.55
2023-04-20T01:52:29.292Z,1009.66
2023-04-20T01:53:29.270Z,1009.59
2023-04-20T01:54:29.396Z,1009.44
2023-04-20T01:55:29.269Z,1009.53
2023-04-20T01:56:29.236Z,1009.52
2023-04-20T01:57:29.217Z,1009.54
2023-04-20T01:58:29.232Z,1009.52
2023-04-20T01:59:29.279Z,1009.56
2023-04-20T02:00:29.190Z,1009.50
2023-04-20T02:01:29.343Z,1009.50
2023-04-20T02:02:29.372Z,1009.54
2023-04-20T02:03:29.541Z,1009.59
2023-04-20T02:04:29.153Z,1009.46
2023-04-20T02:05:29.195Z,1009.48
2023-04-20T02:06:29.285Z,1009.60
2023-04-20T02:07:29.122Z,1009.44
2023-04-20T02:08:29.138Z,1009.41
2023-04-20T02:09:29.117Z,1009.49
2023-04-20T02:10:29.159Z,1009.45
2023-04-20T02:11:29.086Z,1009.45
2023-04-20T02:12:29.098Z,1009.53
2023-04-20T02:13:29.128Z,1009.42
2023-04-20T02:14:29.065Z,1009.46
2023-04-20T02:15:29.035Z,1009.53
2023-04-20T02:16:29.145Z,1009.54
2023-04-20T02:17:29.033Z,1009.55
2023-04-20T02:18:29.090Z,1009.60
2023-04-20T02:19:28.997Z,1009.63
2023-04-20T02:20:28.976Z,1009.57
2023-04-20T02:21:28.997Z,1009.51
2023-04-20T02:22:29.010Z,1009.47
2023-04-20T02:23:29.002Z,1009.46
2023-04-20T02:24:28.995Z,1009.47
2023-04-20T02:25:28.919Z,1009.40
2023-04-20T02:26:28.921Z,1009.50
2023-04-20T02:27:28.950Z,1009.44
2023-04-20T02:28:28.897Z,1009.48
2023-04-20T02:29:28.935Z,1009.44
2023-04-20T02:30:28.893Z,1009.39
2023-04-20T02:31:28.916Z,1009.40
2023-04-20T02:32:28.946Z,1009.39
2023-04-20T02:33:28.904Z,1009.43
2023-04-20T02:34:28.840Z,1009.36
2023-04-20T02:35:28.842Z,1009.38
2023-04-20T02:36:28.812Z,1009.43
2023-04-20T02:37:28.805Z,1009.36
2023-04-20T02:38:28.848Z,1009.39
2023-04-20T02:39:28.791Z,1009.43
2023-04-20T02:40:28.784Z,1009.36
2023-04-20T02:41:28.773Z,1009.34
2023-04-20T02:42:28.753Z,1009.37
2023-04-20T02:43:28.806Z,1009.35
2023-04-20T02:44:28.736Z,1009.41
2023-04-20T02:45:28.733Z,1009.29
2023-04-20T02:46:28.777Z,1009.32
2023-04-20T02:47:28.757Z,1009.39
2023-04-20T02:48:28.699Z,1009.27
2023-04-20T02:49:28.743Z,1009.35
2023-04-20T02:50:28.755Z,1009.30
2023-04-20T02:51:28.654Z,1009.34
2023-04-20T02:52:28.642Z,1009.31
2023-04-20T02:53:28.723Z,1009.33
2023-04-20T02:54:28.894Z,1009.30
2023-04-20T02:55:28.617Z,1009.29
2023-04-20T02:56:28.608Z,1009.24
2023-04-20T02:57:28.582Z,1009.27
2023-04-20T02:58:28.586Z,1009.32
2023-04-20T02:59:28.632Z,1009.33
2023-04-20T03:00:28.592Z,1009.27
2023-04-20T03:01:28.632Z,1009.25
2023-04-20T03:02:28.645Z,1009.24
2023-04-20T03:03:28.647Z,1009.25
2023-04-20T03:04:28.689Z,1009.26
2023-04-20T03:05:28.524Z,1009.30
2023-04-20T03:06:28.582Z,1009.29
2023-04-20T03:07:28.495Z,1009.23
2023-04-20T03:08:28.499Z,1009.24
2023-04-20T03:09:28.463Z,1009.28
2023-04-20T03:10:28.573Z,1009.28
2023-04-20T03:11:28.479Z,1009.16
2023-04-20T03:12:28.426Z,1009.25
2023-04-20T03:13:28.438Z,1009.26
2023-04-20T03:14:28.418Z,1009.30
2023-04-20T03:15:28.471Z,1009.21
2023-04-20T03:16:28.499Z,1009.22
2023-04-20T03:17:28.420Z,1009.23
2023-04-20T03:18:28.371Z,1009.12
2023-04-20T03:19:28.429Z,1009.07
2023-04-20T03:20:28.384Z,1009.06
2023-04-20T03:21:28.407Z,1009.08
2023-04-20T03:22:28.427Z,1009.10
2023-04-20T03:23:28.351Z,1009.17
2023-04-20T03:24:28.317Z,1009.06
2023-04-20T03:25:28.303Z,1009.14
2023-04-20T03:26:28.299Z,1009.10
2023-04-20T03:27:28.339Z,1009.05
2023-04-20T03:28:28.280Z,1009.04
2023-04-20T03:29:28.264Z,1009.04
2023-04-20T03:30:28.285Z,1009.04
2023-04-20T03:31:28.370Z,1009.02
2023-04-20T03:32:28.614Z,1008.98
2023-04-20T03:33:28.248Z,1008.92
2023-04-20T03:34:28.198Z,1008.93
2023-04-20T03:35:28.200Z,1008.99
2023-04-20T03:36:28.253Z,1008.95
2023-04-20T03:37:28.235Z,1008.95
2023-04-20T03:38:28.186Z,1008.86
2023-04-20T03:39:28.164Z,1008.84
2023-04-20T03:40:28.146Z,1008.90
2023-04-20T03:41:28.198Z,1008.83
2023-04-20T03:42:28.198Z,1008.86
2023-04-20T03:43:28.113Z,1008.79
2023-04-20T03:44:28.128Z,1008.82
2023-04-20T03:45:28.161Z,1008.87
2023-04-20T03:46:28.195Z,1008.86
2023-04-20T03:47:28.095Z,1008.84
2023-04-20T03:48:28.099Z,1008.78
2023-04-20T03:49:28.053Z,1008.75
2023-04-20T03:50:28.044Z,1008.77
2023-04-20T03:51:28.075Z,1008.83
2023-04-20T03:52:28.036Z,1008.83
2023-04-20T03:53:28.016Z,1008.80
2023-04-20T03:54:28.128Z,1008.81
2023-04-20T03:55:28.049Z,1008.90
2023-04-20T03:56:28.006Z,1008.85
2023-04-20T03:57:28.016Z,1008.84
2023-04-20T03:58:27.975Z,1008.85
2023-04-20T03:59:27.967Z,1008.84
2023-04-20T04:00:27.937Z,1008.86
2023-04-20T04:01:27.935Z,1008.86
2023-04-20T04:02:28.066Z,1008.83
2023-04-20T04:03:28.025Z,1008.94
2023-04-20T04:04:28.149Z,1008.92
2023-04-20T04:05:28.016Z,1008.98
2023-04-20T04:06:27.868Z,1008.91
2023-04-20T04:07:27.851Z,1008.85
2023-04-20T04:08:27.884Z,1008.85
2023-04-20T04:09:27.913Z,1008.83
2023-04-20T04:10:27.854Z,1008.85
2023-04-20T04:11:27.811Z,1008.87
2023-04-20T04:12:27.871Z,1008.91
2023-04-20T04:13:27.833Z,1008.85
2023-04-20T04:14:27.791Z,1008.83
2023-04-20T04:15:27.783Z,1008.82
2023-04-20T04:16:27.792Z,1008.85
2023-04-20T04:17:27.859Z,1008.85
2023-04-20T04:18:27.747Z,1008.91
2023-04-20T04:19:27.768Z,1008.87
2023-04-20T04:20:27.738Z,1008.98
2023-04-20T04:21:27.735Z,1008.95
2023-04-20T04:22:29.302Z,1009.00
2023-04-20T04:23:27.700Z,1008.96
2023-04-20T04:24:27.687Z,1009.03
2023-04-20T04:25:27.692Z,1008.97
2023-04-20T04:26:27.689Z,1009.01
2023-04-20T04:27:27.716Z,1009.02
2023-04-20T04:28:27.644Z,1009.06
2023-04-20T04:29:27.637Z,1009.09
2023-04-20T04:30:27.620Z,1009.03
2023-04-20T04:31:27.722Z,1009.06
2023-04-20T04:32:27.673Z,1009.08
2023-04-20T04:33:27.597Z,1009.07
2023-04-20T04:34:27.586Z,1009.01
2023-04-20T04:35:27.609Z,1008.98
2023-04-20T04:36:27.574Z,1009.06
2023-04-20T04:37:27.630Z,1009.02
2023-04-20T04:38:27.556Z,1009.04
2023-04-20T04:39:27.530Z,1008.99
2023-04-20T04:40:27.505Z,1009.10
2023-04-20T04:41:27.501Z,1009.01
2023-04-20T04:42:27.618Z,1009.05
2023-04-20T04:43:27.496Z,1009.02
2023-04-20T04:44:27.472Z,1008.99
2023-04-20T04:45:27.468Z,1009.04
2023-04-20T04:46:27.543Z,1008.99
2023-04-20T04:47:27.574Z,1008.99
2023-04-20T04:48:27.438Z,1009.00
2023-04-20T04:49:27.487Z,1009.00
2023-04-20T04:50:27.423Z,1008.95
2023-04-20T04:51:27.466Z,1008.94
2023-04-20T04:52:27.391Z,1008.88
2023-04-20T04:53:27.394Z,1008.90
2023-04-20T04:54:27.381Z,1008.87
2023-04-20T04:55:27.437Z,1008.93
2023-04-20T04:56:27.360Z,1008.90
2023-04-20T04:57:27.371Z,1008.93
2023-04-20T04:58:27.374Z,1008.96
2023-04-20T04:59:27.314Z,1008.98
2023-04-20T05:00:27.377Z,1008.98
2023-04-20T05:01:27.325Z,1008.97
2023-04-20T05:02:27.492Z,1008.99
2023-04-20T05:03:27.371Z,1009.03
2023-04-20T05:04:27.366Z,1008.98
2023-04-20T05:05:27.330Z,1009.00
2023-04-20T05:06:27.301Z,1008.99
2023-04-20T05:07:27.220Z,1009.06
2023-04-20T05:08:27.243Z,1009.03
2023-04-20T05:09:27.217Z,1009.08
2023-04-20T05:10:27.200Z,1009.09
2023-04-20T05:11:27.250Z,1009.11
2023-04-20T05:12:27.190Z,1009.05
2023-04-20T05:13:27.170Z,1009.04
2023-04-20T05:14:27.192Z,1009.10
2023-04-20T05:15:27.150Z,1009.11
2023-04-20T05:16:27.243Z,1009.08
2023-04-20T05:17:27.163Z,1009.11
2023-04-20T05:18:27.122Z,1009.09
2023-04-20T05:19:27.101Z,1009.14
2023-04-20T05:20:27.147Z,1009.14
2023-04-20T05:21:27.159Z,1009.08
2023-04-20T05:22:27.097Z,1009.12
2023-04-20T05:23:27.082Z,1009.19
2023-04-20T05:24:27.062Z,1009.15
2023-04-20T05:25:27.071Z,1009.18
2023-04-20T05:26:27.110Z,1009.15
2023-04-20T05:27:27.067Z,1009.16
2023-04-20T05:28:27.033Z,1009.15
2023-04-20T05:29:27.041Z,1009.19
2023-04-20T05:30:27.072Z,1009.25
2023-04-20T05:31:27.134Z,1009.21
2023-04-20T05:32:27.010Z,1009.22
2023-04-20T05:33:26.971Z,1009.26
2023-04-20T05:34:26.963Z,1009.26
2023-04-20T05:35:26.950Z,1009.25
2023-04-20T05:36:26.997Z,1009.29
2023-04-20T05:37:26.916Z,1009.27
2023-04-20T05:38:26.909Z,1009.31
2023-04-20T05:39:26.909Z,1009.28
2023-04-20T05:40:27.024Z,1009.29
2023-04-20T05:41:26.885Z,1009.29
2023-04-20T05:42:26.925Z,1009.31
2023-04-20T05:43:26.877Z,1009.25
2023-04-20T05:44:26.894Z,1009.26
2023-04-20T05:45:26.844Z,1009.26
2023-04-20T05:46:27.123Z,1009.27
2023-04-20T05:47:26.814Z,1009.25
2023-04-20T05:48:29.551Z,1009.28
2023-04-20T05:49:26.792Z,1009.29
2023-04-20T05:50:26.779Z,1009.26
2023-04-20T05:51:26.847Z,1009.26
2023-04-20T05:52:26.802Z,1009.29
2023-04-20T05:53:26.767Z,1009.26
2023-04-20T05:54:26.815Z,1009.23
2023-04-20T05:55:26.762Z,1009.26
2023-04-20T05:56:26.710Z,1009.35
2023-04-20T05:57:26.755Z,1009.22
2023-04-20T05:58:26.708Z,1009.28
2023-04-20T05:59:26.765Z,1009.37
2023-04-20T06:00:27.314Z,1009.25
2023-04-20T06:01:26.694Z,1009.32
2023-04-20T06:02:26.865Z,1009.26
2023-04-20T06:03:26.914Z,1009.29
2023-04-20T06:04:27.004Z,1009.26
2023-04-20T06:05:26.744Z,1009.30
2023-04-20T06:06:27.037Z,1009.26
2023-04-20T06:07:26.728Z,1009.30
2023-04-20T06:08:26.618Z,1009.27
2023-04-20T06:09:26.601Z,1009.29
2023-04-20T06:10:26.601Z,1009.25
2023-04-20T06:11:26.589Z,1009.31
2023-04-20T06:12:26.869Z,1009.33
2023-04-20T06:13:26.575Z,1009.29
2023-04-20T06:14:26.606Z,1009.32
2023-04-20T06:15:26.691Z,1009.33
2023-04-20T06:16:26.641Z,1009.29
2023-04-20T06:17:26.509Z,1009.33
2023-04-20T06:18:26.581Z,1009.23
2023-04-20T06:19:27.381Z,1009.29
2023-04-20T06:20:26.513Z,1009.27
2023-04-20T06:21:26.463Z,1009.26
2023-04-20T06:22:26.471Z,1009.33
2023-04-20T06:23:26.446Z,1009.26
2023-04-20T06:24:26.521Z,1009.28
2023-04-20T06:25:26.417Z,1009.26
2023-04-20T06:26:26.415Z,1009.31
2023-04-20T06:27:26.450Z,1009.22
2023-04-20T06:28:26.414Z,1009.21
2023-04-20T06:29:26.438Z,1009.14
2023-04-20T06:30:26.399Z,1009.24
2023-04-20T06:31:26.420Z,1009.22
2023-04-20T06:32:26.381Z,1009.28
2023-04-20T06:33:26.339Z,1009.17
2023-04-20T06:34:26.410Z,1009.26
2023-04-20T06:35:26.314Z,1009.23
2023-04-20T06:36:26.306Z,1009.28
2023-04-20T06:37:26.346Z,1009.22
2023-04-20T06:38:26.282Z,1009.17
2023-04-20T06:39:26.356Z,1009.23
2023-04-20T06:40:26.306Z,1009.23
2023-04-20T06:41:26.257Z,1009.21
2023-04-20T06:42:26.236Z,1009.21
2023-04-20T06:43:26.248Z,1009.10
2023-04-20T06:44:26.284Z,1009.12
2023-04-20T06:45:26.215Z,1009.19
2023-04-20T06:46:26.236Z,1009.18
2023-04-20T06:47:26.217Z,1009.22
2023-04-20T06:48:32.353Z,1009.19
2023-04-20T06:49:27.232Z,1009.17
2023-04-20T06:50:26.820Z,1009.14
2023-04-20T06:51:26.176Z,1009.17
2023-04-20T06:52:26.157Z,1009.16
2023-04-20T06:53:26.216Z,1009.17
2023-04-20T06:54:26.179Z,1009.18
2023-04-20T06:55:26.106Z,1009.14
2023-04-20T06:56:26.104Z,1009.19
2023-04-20T06:57:26.100Z,1009.10
2023-04-20T06:58:26.085Z,1009.18
2023-04-20T06:59:26.119Z,1009.18
2023-04-20T07:00:26.088Z,1009.15
2023-04-20T07:01:26.073Z,1009.25
2023-04-20T07:02:26.083Z,1009.21
2023-04-20T07:03:26.154Z,1009.17
2023-04-20T07:04:26.026Z,1009.12
2023-04-20T07:05:26.038Z,1009.11
2023-04-20T07:06:25.993Z,1009.08
2023-04-20T07:07:25.985Z,1009.13
2023-04-20T07:08:25.962Z,1009.16
2023-04-20T07:09:25.959Z,1009.12
2023-04-20T07:10:26.066Z,1009.21
2023-04-20T07:11:26.030Z,1009.16
2023-04-20T07:12:25.919Z,1009.13
2023-04-20T07:13:25.940Z,1009.07
2023-04-20T07:14:25.905Z,1009.12
2023-04-20T07:15:25.895Z,1009.11
2023-04-20T07:16:26.026Z,1009.11
2023-04-20T07:17:25.981Z,1009.14
2023-04-20T07:18:25.858Z,1009.14
2023-04-20T07:19:25.856Z,1009.12
2023-04-20T07:20:25.897Z,1009.15
2023-04-20T07:21:25.889Z,1009.17
2023-04-20T07:22:25.851Z,1009.19
2023-04-20T07:23:25.834Z,1009.20
2023-04-20T07:24:25.817Z,1009.16
2023-04-20T07:25:25.865Z,1009.12
2023-04-20T07:26:25.804Z,1009.11
2023-04-20T07:27:25.857Z,1009.15
2023-04-20T07:28:25.768Z,1009.13
2023-04-20T07:29:25.741Z,1009.23
2023-04-20T07:30:25.811Z,1009.15
2023-04-20T07:31:25.772Z,1009.09
2023-04-20T07:32:25.845Z,1009.16
2023-04-20T07:33:25.700Z,1009.15
2023-04-20T07:34:25.702Z,1009.15
2023-04-20T07:35:25.684Z,1009.18
2023-04-20T07:36:25.700Z,1009.16
2023-04-20T07:37:27.273Z,1009.19
2023-04-20T07:38:25.690Z,1009.20
2023-04-20T07:39:25.667Z,1009.13
2023-04-20T07:40:25.725Z,1009.26
2023-04-20T07:41:25.681Z,1009.20
2023-04-20T07:42:25.641Z,1009.24
2023-04-20T07:43:25.628Z,1009.23
2023-04-20T07:44:25.646Z,1009.24
2023-04-20T07:45:25.583Z,1009.27
2023-04-20T07:46:25.687Z,1009.22
2023-04-20T07:47:25.592Z,1009.29
2023-04-20T07:48:25.604Z,1009.22
2023-04-20T07:49:25.852Z,1009.26
2023-04-20T07:50:25.600Z,1009.24
2023-04-20T07:51:25.523Z,1009.26
2023-04-20T07:52:25.538Z,1009.28
2023-04-20T07:53:25.566Z,1009.22
2023-04-20T07:54:25.526Z,1009.30
2023-04-20T07:55:25.582Z,1009.20
2023-04-20T07:56:25.483Z,1009.23
2023-04-20T07:57:25.463Z,1009.26
2023-04-20T07:58:25.521Z,1009.25
2023-04-20T07:59:25.461Z,1009.28
2023-04-20T08:00:25.500Z,1009.26
2023-04-20T08:01:25.426Z,1009.26
2023-04-20T08:02:25.564Z,1009.23
2023-04-20T08:03:25.586Z,1009.23
2023-04-20T08:04:25.578Z,1009.19
2023-04-20T08:05:25.421Z,1009.28
2023-04-20T08:06:25.500Z,1009.25
2023-04-20T08:07:25.366Z,1009.23
2023-04-20T08:08:25.456Z,1009.24
2023-04-20T08:09:25.593Z,1009.23
2023-04-20T08:10:25.624Z,1009.30
2023-04-20T08:11:25.310Z,1009.24
2023-04-20T08:12:25.362Z,1009.26
2023-04-20T08:13:25.317Z,1009.26
2023-04-20T08:14:25.287Z,1009.28
2023-04-20T08:15:25.289Z,1009.29
2023-04-20T08:16:25.329Z,1009.28
2023-04-20T08:17:25.325Z,1009.26
2023-04-20T08:18:25.250Z,1009.26
2023-04-20T08:19:25.322Z,1009.30
2023-04-20T08:20:25.270Z,1009.29
2023-04-20T08:21:25.932Z,1009.18
2023-04-20T08:22:25.419Z,1009.23
2023-04-20T08:23:25.201Z,1009.23
2023-04-20T08:24:25.270Z,1009.22
2023-04-20T08:25:25.405Z,1009.21
2023-04-20T08:26:25.200Z,1009.25
2023-04-20T08:27:25.196Z,1009.25
2023-04-20T08:28:33.596Z,1009.25
2023-04-20T08:29:26.213Z,1009.23
2023-04-20T08:30:25.146Z,1009.19
2023-04-20T08:31:25.141Z,1009.16
2023-04-20T08:32:25.109Z,1009.23
2023-04-20T08:33:25.148Z,1009.18
2023-04-20T08:34:25.114Z,1009.13
2023-04-20T08:35:25.063Z,1009.17
2023-04-20T08:36:25.063Z,1009.06
2023-04-20T08:37:25.047Z,1009.13
2023-04-20T08:38:33.671Z,1009.10
2023-04-20T08:39:26.056Z,1009.18
2023-04-20T08:40:25.066Z,1009.12
2023-04-20T08:41:24.998Z,1009.13
2023-04-20T08:42:25.087Z,1009.12
2023-04-20T08:43:24.996Z,1009.10
2023-04-20T08:44:24.973Z,1009.02
2023-04-20T08:45:25.073Z,1009.03
2023-04-20T08:46:25.013Z,1009.05
2023-04-20T08:47:24.944Z,1009.02
2023-04-20T08:48:24.958Z,1009.02
2023-04-20T08:49:24.920Z,1008.99
2023-04-20T08:50:24.989Z,1008.98
2023-04-20T08:51:24.885Z,1008.99
2023-04-20T08:52:24.878Z,1008.98
2023-04-20T08:53:24.949Z,1009.02
2023-04-20T08:54:24.953Z,1008.93
2023-04-20T08:55:24.925Z,1009.02
2023-04-20T08:56:24.911Z,1009.04
2023-04-20T08:57:24.841Z,1009.06
2023-04-20T08:58:24.885Z,1009.08
2023-04-20T08:59:24.839Z,1009.12
2023-04-20T09:00:24.790Z,1009.12
2023-04-20T09:01:34.635Z,1009.13
2023-04-20T09:02:26.540Z,1009.07
2023-04-20T09:03:24.993Z,1009.09
2023-04-20T09:04:25.590Z,1009.13
2023-04-20T09:05:24.865Z,1009.11
2023-04-20T09:06:24.801Z,1009.08
2023-04-20T09:07:24.739Z,1009.03
2023-04-20T09:08:24.730Z,1009.06
2023-04-20T09:09:24.706Z,1009.01
2023-04-20T09:10:24.685Z,1009.01
2023-04-20T09:11:24.742Z,1008.99
2023-04-20T09:12:24.739Z,1008.96
2023-04-20T09:13:24.649Z,1008.93
2023-04-20T09:14:24.675Z,1009.00
2023-04-20T09:15:24.738Z,1008.94
2023-04-20T09:16:24.681Z,1008.91
2023-04-20T09:17:24.637Z,1008.89
2023-04-20T09:18:24.606Z,1008.86
2023-04-20T09:19:24.715Z,1008.93
2023-04-20T09:20:24.601Z,1008.92
2023-04-20T09:21:25.608Z,1008.93
2023-04-20T09:22:24.565Z,1008.91
2023-04-20T09:23:24.620Z,1008.97
2023-04-20T09:24:24.647Z,1008.94
2023-04-20T09:25:24.520Z,1009.01
2023-04-20T09:26:24.536Z,1008.95
2023-04-20T09:27:24.523Z,1008.98
2023-04-20T09:28:24.497Z,1008.96
2023-04-20T09:29:24.565Z,1009.01
2023-04-20T09:30:24.554Z,1008.98
2023-04-20T09:31:24.529Z,1009.01
2023-04-20T09:32:24.490Z,1008.96
2023-04-20T09:33:24.451Z,1008.92
2023-04-20T09:34:24.456Z,1008.92
2023-04-20T09:35:24.517Z,1009.04
2023-04-20T09:36:24.405Z,1008.98
2023-04-20T09:37:24.398Z,1008.92
2023-04-20T09:38:24.385Z,1008.87
2023-04-20T09:39:24.370Z,1008.88
2023-04-20T09:40:24.431Z,1008.93
2023-04-20T09:41:24.411Z,1008.93
2023-04-20T09:42:24.351Z,1008.93
2023-04-20T09:43:24.363Z,1008.85
2023-04-20T09:44:24.338Z,1008.88
2023-04-20T09:45:24.396Z,1008.85
2023-04-20T09:46:24.486Z,1008.83
2023-04-20T09:47:24.364Z,1008.96
2023-04-20T09:48:24.316Z,1008.85
2023-04-20T09:49:24.279Z,1008.91
2023-04-20T09:50:32.007Z,1008.90
2023-04-20T09:51:25.265Z,1008.83
2023-04-20T09:52:24.251Z,1008.85
2023-04-20T09:53:24.251Z,1008.86
2023-04-20T09:54:24.253Z,1008.80
2023-04-20T09:55:24.263Z,1008.86
2023-04-20T09:56:24.205Z,1008.82
2023-04-20T09:57:24.195Z,1008.82
2023-04-20T09:58:24.182Z,1008.85
2023-04-20T09:59:24.181Z,1008.86
2023-04-20T10:00:24.223Z,1008.87
2023-04-20T10:01:24.188Z,1008.86
2023-04-20T10:02:24.490Z,1008.87
2023-04-20T10:03:24.204Z,1008.90
2023-04-20T10:04:24.540Z,1008.94
2023-04-20T10:05:24.112Z,1008.85
2023-04-20T10:06:24.165Z,1008.99
2023-04-20T10:07:24.098Z,1008.94
2023-04-20T10:08:24.072Z,1008.92
2023-04-20T10:09:24.094Z,1008.91
2023-04-20T10:10:24.088Z,1008.86
2023-04-20T10:11:24.114Z,1008.87
2023-04-20T10:12:24.043Z,1008.90
2023-04-20T10:13:24.084Z,1008.95
2023-04-20T10:14:24.022Z,1008.91
2023-04-20T10:15:24.010Z,1008.97
2023-04-20T10:16:24.023Z,1009.03
2023-04-20T10:17:24.113Z,1009.02
2023-04-20T10:18:24.461Z,1009.03
2023-04-20T10:19:23.969Z,1009.05
2023-04-20T10:20:23.952Z,1008.93
2023-04-20T10:21:23.947Z,1008.94
2023-04-20T10:22:23.986Z,1008.96
2023-04-20T10:23:23.924Z,1008.97
2023-04-20T10:24:24.370Z,1008.92
2023-04-20T10:25:24.003Z,1009.01
2023-04-20T10:26:23.950Z,1008.95
2023-04-20T10:27:23.954Z,1008.90
2023-04-20T10:28:23.942Z,1008.89
2023-04-20T10:29:23.864Z,1008.87
2023-04-20T10:30:23.856Z,1008.91
2023-04-20T10:31:23.910Z,1008.90
2023-04-20T10:32:23.850Z,1008.90
2023-04-20T10:33:23.830Z,1008.82
2023-04-20T10:34:23.884Z,1008.83
2023-04-20T10:35:23.801Z,1008.81
2023-04-20T10:36:23.772Z,1008.77
2023-04-20T10:37:23.770Z,1008.84
2023-04-20T10:38:23.814Z,1008.81
2023-04-20T10:39:23.957Z,1008.84
2023-04-20T10:40:23.733Z,1008.85
2023-04-20T10:41:23.792Z,1008.81
2023-04-20T10:42:23.718Z,1008.76
2023-04-20T10:43:23.765Z,1008.78
2023-04-20T10:44:23.716Z,1008.75
2023-04-20T10:45:23.741Z,1008.72
2023-04-20T10:46:23.731Z,1008.79
2023-04-20T10:47:23.692Z,1008.66
2023-04-20T10:48:23.789Z,1008.73
2023-04-20T10:49:23.691Z,1008.80
2023-04-20T10:50:23.661Z,1008.65
2023-04-20T10:51:23.645Z,1008.64
2023-04-20T10:52:23.628Z,1008.60
2023-04-20T10:53:23.687Z,1008.67
2023-04-20T10:54:23.583Z,1008.70
2023-04-20T10:55:23.583Z,1008.73
2023-04-20T10:56:23.606Z,1008.73
2023-04-20T10:57:23.552Z,1008.73
2023-04-20T10:58:23.689Z,1008.62
2023-04-20T10:59:23.536Z,1008.66
2023-04-20T11:00:23.554Z,1008.69
2023-04-20T11:01:23.531Z,1008.58
2023-04-20T11:02:23.804Z,1008.60
2023-04-20T11:03:23.635Z,1008.61
2023-04-20T11:04:23.591Z,1008.60
2023-04-20T11:05:23.645Z,1008.60
2023-04-20T11:06:24.515Z,1008.61
2023-04-20T11:07:23.464Z,1008.60
2023-04-20T11:08:23.452Z,1008.61
2023-04-20T11:09:23.447Z,1008.60
2023-04-20T11:10:23.521Z,1008.64
2023-04-20T11:11:23.404Z,1008.56
2023-04-20T11:12:23.400Z,1008.62
2023-04-20T11:13:23.404Z,1008.70
2023-04-20T11:14:23.449Z,1008.63
2023-04-20T11:15:23.422Z,1008.64
2023-04-20T11:16:28.163Z,1008.71
2023-04-20T11:17:24.407Z,1008.75
2023-04-20T11:18:23.382Z,1008.72
2023-04-20T11:19:23.389Z,1008.61
2023-04-20T11:20:23.302Z,1008.63
2023-04-20T11:21:23.383Z,1008.67
2023-04-20T11:22:23.343Z,1008.58
2023-04-20T11:23:23.289Z,1008.67
2023-04-20T11:24:23.283Z,1008.70
2023-04-20T11:25:23.271Z,1008.61
2023-04-20T11:26:23.320Z,1008.59
2023-04-20T11:27:23.252Z,1008.61
2023-04-20T11:28:23.284Z,1008.55
2023-04-20T11:29:23.241Z,1008.61
2023-04-20T11:30:23.207Z,1008.57
2023-04-20T11:31:23.480Z,1008.56
2023-04-20T11:32:23.427Z,1008.50
2023-04-20T11:33:23.339Z,1008.62
2023-04-20T11:34:23.166Z,1008.59
2023-04-20T11:35:23.156Z,1008.55
2023-04-20T11:36:23.209Z,1008.58
2023-04-20T11:37:23.114Z,1008.47
2023-04-20T11:38:23.127Z,1008.55
2023-04-20T11:39:23.142Z,1008.53
2023-04-20T11:40:23.090Z,1008.57
2023-04-20T11:41:23.136Z,1008.58
2023-04-20T11:42:23.080Z,1008.60
2023-04-20T11:43:23.068Z,1008.53
2023-04-20T11:44:23.054Z,1008.48
2023-04-20T11:45:23.049Z,1008.47
2023-04-20T11:46:23.153Z,1008.39
2023-04-20T11:47:23.069Z,1008.45
2023-04-20T11:48:23.017Z,1008.40
2023-04-20T11:49:23.004Z,1008.35
2023-04-20T11:50:23.013Z,1008.40
2023-04-20T11:51:23.206Z,1008.51
2023-04-20T11:52:22.989Z,1008.67
2023-04-20T11:53:22.966Z,1008.54
2023-04-20T11:54:22.989Z,1008.50
2023-04-20T11:55:22.943Z,1008.56
2023-04-20T11:56:23.144Z,1008.58
2023-04-20T11:57:22.981Z,1008.55
2023-04-20T11:58:22.900Z,1008.51
2023-04-20T11:59:22.889Z,1008.46
2023-04-20T12:00:22.893Z,1008.39
2023-04-20T12:01:22.882Z,1008.43
2023-04-20T12:02:23.133Z,1008.45
2023-04-20T12:03:23.072Z,1008.39
2023-04-20T12:04:23.407Z,1008.45
2023-04-20T12:05:22.998Z,1008.43